Terminal Aerodrome Forecast
Issued by NWS

Home | Current Version | Previous Version | Text Only | Print | Product List | Glossary On
Versions: 1 2 3 4 5 6 7 8 9 10 11 12
000
FTUS42 KTAE 211720
TAFDHN
TAF
KDHN 211720Z 2118/2218 12006KT P6SM SKC
     FM221000 14006KT P6SM SCT005 BKN025=

USA.gov is the U.S. government's official web portal to all federal, state and local government web resources and services.